createdAt,value
2022-10-19T00:01:32.111Z,100999.22
2022-10-19T00:03:59.966Z,100996.16
2022-10-19T00:06:29.962Z,100984.44
2022-10-19T00:09:09.053Z,100989.41
2022-10-19T00:11:38.708Z,100986.59
2022-10-19T00:14:05.551Z,100985.88
2022-10-19T00:16:37.775Z,100984.47
2022-10-19T00:19:07.683Z,100976.06
2022-10-19T00:21:34.210Z,100973.28
2022-10-19T00:24:00.859Z,100972.03
2022-10-19T00:26:27.939Z,100954.31
2022-10-19T00:28:55.667Z,100978.81
2022-10-19T00:31:22.278Z,100969.69
2022-10-19T00:33:48.815Z,100967.72
2022-10-19T00:36:24.381Z,100968.47
2022-10-19T00:38:52.026Z,100958.13
2022-10-19T00:41:19.745Z,100967.91
2022-10-19T00:44:27.487Z,100957.25
2022-10-19T00:46:57.710Z,100949.19
2022-10-19T00:49:28.461Z,100940.66
2022-10-19T00:52:14.755Z,100942.25
2022-10-19T00:54:43.218Z,100929.19
2022-10-19T00:57:10.688Z,100935.41
2022-10-19T00:59:39.696Z,100929.09
2022-10-19T01:02:06.811Z,100927.59
2022-10-19T01:04:36.937Z,100924.28
2022-10-19T01:07:05.027Z,100926.34
2022-10-19T01:09:31.589Z,100924.16
2022-10-19T01:12:26.224Z,100914.91
2022-10-19T01:15:08.071Z,100914.06
2022-10-19T01:18:16.215Z,100909.53
2022-10-19T01:20:58.404Z,100911.84
2022-10-19T01:23:54.471Z,100905.13
2022-10-19T01:26:42.098Z,100906.00
2022-10-19T01:29:43.185Z,100904.50
2022-10-19T01:32:23.995Z,100910.63
2022-10-19T01:34:58.560Z,100904.06
2022-10-19T01:37:35.861Z,100896.44
2022-10-19T01:40:28.131Z,100896.19
2022-10-19T01:43:03.040Z,100890.19
2022-10-19T01:45:52.644Z,100886.59
2022-10-19T01:48:25.627Z,100885.09
2022-10-19T01:51:06.135Z,100885.81
2022-10-19T01:53:37.730Z,100886.69
2022-10-19T01:56:05.588Z,100875.72
2022-10-19T01:58:35.953Z,100869.16
2022-10-19T02:01:07.413Z,100872.56
2022-10-19T02:03:35.413Z,100881.59
2022-10-19T02:06:06.125Z,100882.47
2022-10-19T02:08:41.486Z,100886.88
2022-10-19T02:11:08.237Z,100883.31
2022-10-19T02:13:36.465Z,100881.59
2022-10-19T02:16:08.905Z,100881.16
2022-10-19T02:18:40.585Z,100876.66
2022-10-19T02:21:07.588Z,100876.75
2022-10-19T02:23:34.192Z,100878.78
2022-10-19T02:26:00.755Z,100876.72
2022-10-19T02:28:28.924Z,100884.66
2022-10-19T02:30:56.011Z,100876.59
2022-10-19T02:33:22.578Z,100876.25
2022-10-19T02:35:49.258Z,100869.91
2022-10-19T02:38:21.123Z,100873.69
2022-10-19T02:41:16.691Z,100876.25
2022-10-19T02:43:49.070Z,100874.19
2022-10-19T02:46:24.531Z,100869.91
2022-10-19T02:48:51.851Z,100871.59
2022-10-19T02:51:58.269Z,100866.13
2022-10-19T02:54:25.623Z,100875.06
2022-10-19T02:56:52.318Z,100880.59
2022-10-19T02:59:19.047Z,100870.72
2022-10-19T03:01:45.593Z,100872.94
2022-10-19T03:04:12.144Z,100882.50
2022-10-19T03:06:38.682Z,100886.03
2022-10-19T03:09:05.285Z,100894.72
2022-10-19T03:11:31.830Z,100880.94
2022-10-19T03:13:58.314Z,100881.53
2022-10-19T03:16:24.864Z,100877.63
2022-10-19T03:18:51.886Z,100887.28
2022-10-19T03:21:19.062Z,100882.41
2022-10-19T03:23:45.551Z,100886.69
2022-10-19T03:26:15.126Z,100887.53
2022-10-19T03:28:41.666Z,100884.84
2022-10-19T03:31:08.371Z,100876.66
2022-10-19T03:33:34.893Z,100877.75
2022-10-19T03:36:28.046Z,100879.38
2022-10-19T03:39:00.021Z,100875.09
2022-10-19T03:41:29.418Z,100871.94
2022-10-19T03:43:56.898Z,100859.81
2022-10-19T03:46:24.183Z,100866.94
2022-10-19T03:48:50.926Z,100866.44
2022-10-19T03:51:21.208Z,100869.25
2022-10-19T03:53:51.888Z,100862.16
2022-10-19T03:56:20.281Z,100867.66
2022-10-19T03:58:48.773Z,100857.78
2022-10-19T04:01:18.209Z,100851.75
2022-10-19T04:03:45.370Z,100859.00
2022-10-19T04:06:19.647Z,100854.25
2022-10-19T04:08:49.393Z,100849.59
2022-10-19T04:11:22.835Z,100856.19
2022-10-19T04:13:50.592Z,100859.84
2022-10-19T04:16:17.874Z,100870.13
2022-10-19T04:18:44.489Z,100863.16
2022-10-19T04:21:21.904Z,100857.16
2022-10-19T04:23:49.397Z,100865.00
2022-10-19T04:26:16.027Z,100871.22
2022-10-19T04:28:42.608Z,100864.00
2022-10-19T04:31:12.259Z,100862.50
2022-10-19T04:33:39.565Z,100864.81
2022-10-19T04:36:09.039Z,100869.47
2022-10-19T04:38:35.729Z,100868.84
2022-10-19T04:41:13.450Z,100856.81
2022-10-19T04:43:40.582Z,100866.25
2022-10-19T04:46:10.409Z,100878.00
2022-10-19T04:48:38.398Z,100870.06
2022-10-19T04:51:05.951Z,100856.69
2022-10-19T04:53:33.669Z,100860.16
2022-10-19T04:56:03.904Z,100862.09
2022-10-19T04:58:30.425Z,100863.94
2022-10-19T05:00:56.945Z,100865.28
2022-10-19T05:03:23.489Z,100856.22
2022-10-19T05:05:50.740Z,100862.13
2022-10-19T05:08:17.307Z,100854.03
2022-10-19T05:10:47.014Z,100859.19
2022-10-19T05:13:14.804Z,100863.00
2022-10-19T05:15:41.463Z,100877.69
2022-10-19T05:18:07.978Z,100875.38
2022-10-19T05:20:34.534Z,100881.16
2022-10-19T05:23:06.140Z,100873.41
2022-10-19T05:25:33.863Z,100869.03
2022-10-19T05:28:00.555Z,100875.50
2022-10-19T05:30:27.051Z,100881.00
2022-10-19T05:32:53.539Z,100881.28
2022-10-19T05:35:22.687Z,100880.16
2022-10-19T05:37:54.451Z,100877.22
2022-10-19T05:40:20.953Z,100884.44
2022-10-19T05:42:47.449Z,100882.47
2022-10-19T05:45:13.967Z,100889.09
2022-10-19T05:47:40.450Z,100889.09
2022-10-19T05:50:07.250Z,100897.91
2022-10-19T05:52:33.735Z,100889.44
2022-10-19T05:55:00.263Z,100893.72
2022-10-19T05:57:26.816Z,100904.38
2022-10-19T05:59:56.643Z,100898.88
2022-10-19T06:02:23.220Z,100901.34
2022-10-19T06:04:50.200Z,100902.69
2022-10-19T06:07:16.728Z,100905.13
2022-10-19T06:09:43.237Z,100908.19
2022-10-19T06:12:09.770Z,100913.66
2022-10-19T06:14:36.291Z,100915.75
2022-10-19T06:17:02.820Z,100916.56
2022-10-19T06:19:29.306Z,100923.19
2022-10-19T06:21:55.930Z,100924.97
2022-10-19T06:24:22.411Z,100919.44
2022-10-19T06:26:49.031Z,100922.06
2022-10-19T06:29:15.517Z,100924.44
2022-10-19T06:31:42.044Z,100925.09
2022-10-19T06:34:08.637Z,100931.91
2022-10-19T06:36:35.459Z,100935.00
2022-10-19T06:39:02.127Z,100931.25
2022-10-19T06:41:31.202Z,100941.56
2022-10-19T06:43:57.737Z,100946.75
2022-10-19T06:46:25.971Z,100942.97
2022-10-19T06:48:54.519Z,100945.56
2022-10-19T06:51:21.966Z,100951.69
2022-10-19T06:53:54.215Z,100951.63
2022-10-19T06:56:24.531Z,100957.66
2022-10-19T06:58:51.291Z,100959.66
2022-10-19T07:01:18.465Z,100960.94
2022-10-19T07:03:45.067Z,100962.38
2022-10-19T07:06:12.969Z,100963.41
2022-10-19T07:08:41.755Z,100967.97
2022-10-19T07:11:22.330Z,100967.81
2022-10-19T07:13:48.896Z,100972.50
2022-10-19T07:16:20.650Z,100975.03
2022-10-19T07:18:49.885Z,100985.72
2022-10-19T07:21:17.803Z,100987.41
2022-10-19T07:23:47.259Z,100994.78
2022-10-19T07:26:40.143Z,100992.22
2022-10-19T07:29:06.678Z,100995.31
2022-10-19T07:31:33.232Z,100998.97
2022-10-19T07:34:02.504Z,100994.94
2022-10-19T07:36:31.556Z,100989.66
2022-10-19T07:38:58.122Z,100994.72
2022-10-19T07:41:26.061Z,100988.09
2022-10-19T07:43:53.381Z,100996.72
2022-10-19T07:46:22.389Z,100979.38
2022-10-19T07:48:49.710Z,101000.53
2022-10-19T07:51:17.972Z,100992.19
2022-10-19T07:53:44.966Z,101005.81
2022-10-19T07:56:18.969Z,100995.59
2022-10-19T07:58:46.059Z,100997.19
2022-10-19T08:01:18.599Z,100987.81
2022-10-19T08:06:32.971Z,100988.16
2022-10-19T08:08:59.762Z,100983.50
2022-10-19T08:11:28.790Z,100984.06
2022-10-19T08:13:55.552Z,100978.03
2022-10-19T08:16:42.134Z,100980.13
2022-10-19T08:19:11.563Z,100976.97
2022-10-19T08:21:40.547Z,100981.75
2022-10-19T08:24:08.221Z,100989.47
2022-10-19T08:26:38.269Z,100980.66
2022-10-19T08:29:08.549Z,100976.59
2022-10-19T08:31:35.036Z,100989.41
2022-10-19T08:34:02.066Z,100984.97
2022-10-19T08:36:31.294Z,100986.16
2022-10-19T08:38:58.744Z,100987.53
2022-10-19T08:41:44.375Z,100991.28
2022-10-19T08:44:29.220Z,100990.41
2022-10-19T08:47:23.571Z,100992.59
2022-10-19T08:49:50.983Z,100992.06
2022-10-19T08:52:24.900Z,100991.66
2022-10-19T08:54:54.352Z,100992.16
2022-10-19T08:57:42.286Z,100988.66
2022-10-19T09:03:37.782Z,100995.03
2022-10-19T09:06:27.606Z,100992.72
2022-10-19T09:08:57.049Z,100982.06
2022-10-19T09:11:27.965Z,100990.19
2022-10-19T09:14:11.967Z,100991.63
2022-10-19T09:16:38.622Z,100992.19
2022-10-19T09:19:32.030Z,100991.28
2022-10-19T09:22:04.370Z,100986.25
2022-10-19T09:25:05.892Z,100983.16
2022-10-19T09:27:38.855Z,100982.28
2022-10-19T09:30:18.024Z,100975.97
2022-10-19T09:32:44.662Z,100990.38
2022-10-19T09:35:13.861Z,100989.00
2022-10-19T09:37:44.803Z,100983.47
2022-10-19T09:40:26.991Z,100990.19
2022-10-19T09:43:03.762Z,100995.81
2022-10-19T09:45:46.121Z,101001.38
2022-10-19T09:48:27.732Z,100998.59
2022-10-19T09:51:02.866Z,101000.91
2022-10-19T09:53:30.175Z,100992.88
2022-10-19T09:56:03.237Z,100986.72
2022-10-19T09:58:33.074Z,100992.72
2022-10-19T10:01:01.877Z,100982.81
2022-10-19T10:03:43.541Z,100976.91
2022-10-19T10:06:15.398Z,100972.91
2022-10-19T10:08:52.741Z,100968.66
2022-10-19T10:11:32.974Z,100969.31
2022-10-19T10:14:15.532Z,100969.94
2022-10-19T10:16:42.044Z,100962.41
2022-10-19T10:19:13.767Z,100958.41
2022-10-19T10:21:49.276Z,100957.31
2022-10-19T10:24:16.762Z,100966.41
2022-10-19T10:26:45.803Z,100957.38
2022-10-19T10:29:24.344Z,100948.72
2022-10-19T10:31:53.477Z,100951.00
2022-10-19T10:35:00.973Z,100944.19
2022-10-19T10:37:47.905Z,100941.94
2022-10-19T10:40:28.205Z,100938.69
2022-10-19T10:42:58.314Z,100940.16
2022-10-19T10:45:42.916Z,100933.03
2022-10-19T10:48:27.526Z,100932.69
2022-10-19T10:50:54.682Z,100928.34
2022-10-19T10:53:45.280Z,100920.28
2022-10-19T10:56:24.236Z,100918.19
2022-10-19T10:58:53.709Z,100910.72
2022-10-19T11:01:23.363Z,100910.88
2022-10-19T11:03:57.242Z,100901.53
2022-10-19T11:06:26.648Z,100899.53
2022-10-19T11:09:38.210Z,100901.34
2022-10-19T11:12:09.947Z,100887.88
2022-10-19T11:14:48.493Z,100895.50
2022-10-19T11:17:21.453Z,100899.38
2022-10-19T11:19:51.308Z,100895.81
2022-10-19T11:22:44.826Z,100898.56
2022-10-19T11:25:40.215Z,100893.22
2022-10-19T11:28:45.271Z,100897.31
2022-10-19T11:31:14.746Z,100894.03
2022-10-19T11:34:00.042Z,100895.56
2022-10-19T11:36:32.635Z,100899.91
2022-10-19T11:39:36.353Z,100887.06
2022-10-19T11:42:23.803Z,100872.88
2022-10-19T11:44:59.234Z,100874.31
2022-10-19T11:47:52.099Z,100891.06
2022-10-19T11:50:35.526Z,100876.28
2022-10-19T11:53:18.447Z,100878.97
2022-10-19T11:56:01.075Z,100880.47
2022-10-19T11:58:42.431Z,100885.22
2022-10-19T12:01:21.014Z,100888.28
2022-10-19T12:04:09.011Z,100881.53
2022-10-19T12:07:03.382Z,100874.81
2022-10-19T12:09:43.122Z,100869.88
2022-10-19T12:12:18.500Z,100866.25
2022-10-19T12:14:49.955Z,100865.97
2022-10-19T12:17:26.983Z,100873.22
2022-10-19T12:19:59.813Z,100875.16
2022-10-19T12:22:30.508Z,100871.00
2022-10-19T12:25:00.213Z,100863.72
2022-10-19T12:27:34.445Z,100854.53
2022-10-19T12:30:06.871Z,100852.28
2022-10-19T12:32:59.291Z,100864.44
2022-10-19T12:35:49.569Z,100860.97
2022-10-19T12:38:25.046Z,100857.75
2022-10-19T12:41:02.946Z,100861.81
2022-10-19T12:43:49.202Z,100852.00
2022-10-19T12:46:48.361Z,100843.59
2022-10-19T12:49:30.144Z,100850.88
2022-10-19T12:51:59.030Z,100845.59
2022-10-19T12:54:28.219Z,100836.97
2022-10-19T12:56:57.878Z,100837.22
2022-10-19T12:59:27.574Z,100835.84
2022-10-19T13:01:54.760Z,100849.28
2022-10-19T13:04:25.023Z,100841.13
2022-10-19T13:07:01.715Z,100835.63
2022-10-19T13:09:35.913Z,100825.47
2022-10-19T13:12:17.729Z,100831.28
2022-10-19T13:15:02.244Z,100825.97
2022-10-19T13:17:37.962Z,100819.69
2022-10-19T13:20:13.795Z,100824.38
2022-10-19T13:22:45.745Z,100827.16
2022-10-19T13:25:23.463Z,100821.03
2022-10-19T13:27:51.699Z,100831.03
2022-10-19T13:30:39.249Z,100825.19
2022-10-19T13:33:33.031Z,100837.44
2022-10-19T13:35:59.485Z,100846.41
2022-10-19T13:38:32.816Z,100838.06
2022-10-19T13:41:07.149Z,100841.22
2022-10-19T13:43:33.715Z,100841.63
2022-10-19T13:46:24.180Z,100841.63
2022-10-19T13:48:59.414Z,100844.03
2022-10-19T13:51:56.383Z,100843.19
2022-10-19T13:54:22.830Z,100842.31
2022-10-19T13:57:06.427Z,100834.38
2022-10-19T13:59:32.872Z,100836.44
2022-10-19T14:02:47.474Z,100845.91
2022-10-19T14:05:50.765Z,100844.56
2022-10-19T14:09:04.892Z,100840.78
2022-10-19T14:11:35.575Z,100836.38
2022-10-19T14:14:11.231Z,100837.56
2022-10-19T14:16:46.796Z,100833.50
2022-10-19T14:19:14.369Z,100839.38
2022-10-19T14:21:41.296Z,100845.03
2022-10-19T14:24:40.009Z,100847.75
2022-10-19T14:27:08.038Z,100851.19
2022-10-19T14:29:43.701Z,100845.06
2022-10-19T14:32:11.921Z,100847.94
2022-10-19T14:34:42.772Z,100849.88
2022-10-19T14:37:24.259Z,100845.94
2022-10-19T14:40:23.561Z,100851.09
2022-10-19T14:42:53.401Z,100848.28
2022-10-19T14:45:23.237Z,100851.63
2022-10-19T14:47:59.310Z,100849.03
2022-10-19T14:50:29.646Z,100846.03
2022-10-19T14:53:03.023Z,100844.75
2022-10-19T14:55:36.047Z,100850.38
2022-10-19T14:58:07.168Z,100851.97
2022-10-19T15:00:33.782Z,100857.63
2022-10-19T15:03:05.203Z,100850.16
2022-10-19T15:05:36.426Z,100846.44
2022-10-19T15:08:17.108Z,100854.22
2022-10-19T15:10:48.375Z,100859.81
2022-10-19T15:13:25.512Z,100859.03
2022-10-19T15:15:53.478Z,100857.09
2022-10-19T15:18:43.874Z,100857.06
2022-10-19T15:21:18.167Z,100864.16
2022-10-19T15:23:52.415Z,100862.81
2022-10-19T15:26:24.582Z,100868.06
2022-10-19T15:28:51.760Z,100867.88
2022-10-19T15:31:21.356Z,100866.44
2022-10-19T15:33:51.075Z,100863.13
2022-10-19T15:36:19.938Z,100856.66
2022-10-19T15:38:49.187Z,100869.03
2022-10-19T15:41:25.510Z,100874.84
2022-10-19T15:43:54.451Z,100873.66
2022-10-19T15:46:31.725Z,100872.88
2022-10-19T15:49:17.641Z,100877.97
2022-10-19T15:51:48.548Z,100888.75
2022-10-19T15:54:17.487Z,100891.69
2022-10-19T15:56:46.410Z,100898.50
2022-10-19T15:59:18.950Z,100905.81
2022-10-19T16:01:52.436Z,100916.41
2022-10-19T16:04:21.627Z,100912.47
2022-10-19T16:06:48.136Z,100920.31
2022-10-19T16:09:18.647Z,100909.38
2022-10-19T16:11:45.305Z,100909.81
2022-10-19T16:14:11.874Z,100900.63
2022-10-19T16:16:38.655Z,100902.41
2022-10-19T16:19:05.181Z,100895.28
2022-10-19T16:21:35.091Z,100899.31
2022-10-19T16:24:02.018Z,100903.44
2022-10-19T16:26:28.913Z,100910.97
2022-10-19T16:28:56.164Z,100914.84
2022-10-19T16:31:23.864Z,100912.56
2022-10-19T16:33:51.135Z,100916.59
2022-10-19T16:36:20.801Z,100912.03
2022-10-19T16:38:48.039Z,100905.75
2022-10-19T16:41:15.012Z,100901.31
2022-10-19T16:43:41.635Z,100899.88
2022-10-19T16:46:08.394Z,100898.41
2022-10-19T16:48:35.140Z,100904.34
2022-10-19T16:51:07.556Z,100906.38
2022-10-19T16:53:35.364Z,100910.56
2022-10-19T16:56:10.303Z,100931.00
2022-10-19T16:58:37.577Z,100939.59
2022-10-19T17:01:16.374Z,100939.72
2022-10-19T17:03:47.402Z,100938.00
2022-10-19T17:06:15.490Z,100932.66
2022-10-19T17:09:14.750Z,100938.50
2022-10-19T17:11:31.926Z,100936.97
2022-10-19T17:14:01.468Z,100944.34
2022-10-19T17:16:30.895Z,100946.09
2022-10-19T17:18:59.556Z,100959.78
2022-10-19T17:21:28.853Z,100963.50
2022-10-19T17:23:57.915Z,100962.81
2022-10-19T17:26:30.346Z,100959.81
2022-10-19T17:28:59.440Z,100958.81
2022-10-19T17:31:26.796Z,100965.09
2022-10-19T17:33:53.753Z,100966.78
2022-10-19T17:36:23.097Z,100969.81
2022-10-19T17:38:49.646Z,100955.28
2022-10-19T17:41:18.221Z,100965.97
2022-10-19T17:43:46.798Z,100968.44
2022-10-19T17:46:16.033Z,100965.56
2022-10-19T17:48:43.806Z,100973.13
2022-10-19T17:51:19.222Z,100973.84
2022-10-19T17:53:48.169Z,100976.38
2022-10-19T17:56:18.124Z,100986.28
2022-10-19T17:58:45.071Z,100989.25
2022-10-19T18:01:12.504Z,100981.41
2022-10-19T18:03:40.152Z,100986.44
2022-10-19T18:06:10.525Z,100989.31
2022-10-19T18:08:40.538Z,100985.72
2022-10-19T18:11:11.058Z,100991.84
2022-10-19T18:13:38.569Z,100995.44
2022-10-19T18:16:10.950Z,100994.84
2022-10-19T18:18:39.542Z,100999.56
2022-10-19T18:21:11.776Z,100987.19
2022-10-19T18:23:38.818Z,101007.69
2022-10-19T18:26:08.919Z,101014.22
2022-10-19T18:28:35.784Z,101018.91
2022-10-19T18:31:11.446Z,101032.81
2022-10-19T18:33:38.910Z,101022.56
2022-10-19T18:36:06.930Z,101023.00
2022-10-19T18:38:33.561Z,101015.59
2022-10-19T18:43:54.347Z,101037.19
2022-10-19T18:46:22.550Z,101035.16
2022-10-19T18:48:49.907Z,101035.59
2022-10-19T18:51:17.974Z,101049.19
2022-10-19T18:53:45.291Z,101043.75
2022-10-19T18:56:14.150Z,101056.69
2022-10-19T18:58:40.718Z,101057.94
2022-10-19T19:01:11.114Z,101069.94
2022-10-19T19:03:39.833Z,101082.50
2022-10-19T19:06:12.776Z,101080.28
2022-10-19T19:08:39.712Z,101073.94
2022-10-19T19:11:15.490Z,101064.38
2022-10-19T19:13:46.544Z,101067.78
2022-10-19T19:16:13.112Z,101075.28
2022-10-19T19:18:39.679Z,101061.84
2022-10-19T19:21:17.886Z,101054.22
2022-10-19T19:23:44.597Z,101071.13
2022-10-19T19:26:12.995Z,101065.78
2022-10-19T19:28:41.790Z,101051.31
2022-10-19T19:31:10.343Z,101068.91
2022-10-19T19:33:37.384Z,101080.09
2022-10-19T19:36:05.818Z,101062.97
2022-10-19T19:38:33.011Z,101070.25
2022-10-19T19:40:59.643Z,101073.22
2022-10-19T19:43:26.131Z,101083.44
2022-10-19T19:45:57.332Z,101092.16
2022-10-19T19:48:23.878Z,101098.00
2022-10-19T19:50:52.774Z,101109.41
2022-10-19T19:53:19.604Z,101107.06
2022-10-19T19:55:47.635Z,101104.59
2022-10-19T19:58:15.555Z,101100.56
2022-10-19T20:00:43.130Z,101100.44
2022-10-19T20:03:12.279Z,101103.28
2022-10-19T20:05:40.227Z,101110.28
2022-10-19T20:08:07.637Z,101116.38
2022-10-19T20:10:38.774Z,101106.72
2022-10-19T20:13:05.494Z,101108.91
2022-10-19T20:15:32.179Z,101118.38
2022-10-19T20:17:58.733Z,101114.31
2022-10-19T20:20:25.251Z,101129.13
2022-10-19T20:22:51.782Z,101134.72
2022-10-19T20:25:18.451Z,101144.63
2022-10-19T20:27:44.959Z,101141.81
2022-10-19T20:30:11.941Z,101134.44
2022-10-19T20:32:38.809Z,101139.75
2022-10-19T20:35:06.114Z,101144.47
2022-10-19T20:37:32.647Z,101148.75
2022-10-19T20:40:00.669Z,101140.63
2022-10-19T20:42:27.941Z,101143.88
2022-10-19T20:44:55.479Z,101148.59
2022-10-19T20:47:22.027Z,101155.75
2022-10-19T20:49:48.656Z,101152.00
2022-10-19T20:52:15.203Z,101145.91
2022-10-19T20:54:41.654Z,101153.88
2022-10-19T20:57:08.151Z,101158.19
2022-10-19T20:59:34.642Z,101156.59
2022-10-19T21:02:01.196Z,101162.75
2022-10-19T21:04:27.848Z,101154.50
2022-10-19T21:06:54.363Z,101154.59
2022-10-19T21:09:23.350Z,101164.16
2022-10-19T21:11:51.609Z,101166.09
2022-10-19T21:14:25.252Z,101162.66
2022-10-19T21:16:56.594Z,101170.25
2022-10-19T21:19:25.447Z,101172.41
2022-10-19T21:21:57.775Z,101174.25
2022-10-19T21:24:27.060Z,101170.59
2022-10-19T21:26:53.961Z,101173.06
2022-10-19T21:29:20.711Z,101166.50
2022-10-19T21:31:49.510Z,101171.22
2022-10-19T21:34:18.702Z,101168.22
2022-10-19T21:36:45.241Z,101167.09
2022-10-19T21:39:13.043Z,101169.63
2022-10-19T21:41:39.642Z,101170.78
2022-10-19T21:44:07.395Z,101182.13
2022-10-19T21:46:33.881Z,101180.28
2022-10-19T21:49:00.446Z,101185.19
2022-10-19T21:51:37.442Z,101183.75
2022-10-19T21:54:06.739Z,101183.84
2022-10-19T21:56:34.187Z,101187.03
2022-10-19T21:59:00.686Z,101185.91
2022-10-19T22:01:29.586Z,101185.25
2022-10-19T22:04:01.639Z,101189.34
2022-10-19T22:06:30.369Z,101192.31
2022-10-19T22:08:57.815Z,101188.97
2022-10-19T22:11:25.087Z,101181.03
2022-10-19T22:14:00.351Z,101179.88
2022-10-19T22:16:28.097Z,101192.31
2022-10-19T22:18:55.363Z,101197.81
2022-10-19T22:21:29.030Z,101183.63
2022-10-19T22:23:58.447Z,101195.28
2022-10-19T22:26:30.498Z,101184.59
2022-10-19T22:28:58.710Z,101184.94
2022-10-19T22:31:27.540Z,101178.84
2022-10-19T22:33:54.296Z,101181.81
2022-10-19T22:36:20.976Z,101179.88
2022-10-19T22:38:47.721Z,101177.69
2022-10-19T22:42:10.530Z,101186.78
2022-10-19T22:44:37.113Z,101188.69
2022-10-19T22:47:03.755Z,101185.25
2022-10-19T22:49:30.329Z,101190.13
2022-10-19T22:51:56.834Z,101188.53
2022-10-19T22:54:23.400Z,101189.19
2022-10-19T22:56:51.022Z,101198.28
2022-10-19T22:59:17.578Z,101194.94
2022-10-19T23:01:44.121Z,101189.09
2022-10-19T23:04:10.654Z,101191.94
2022-10-19T23:06:37.198Z,101194.72
2022-10-19T23:09:04.326Z,101194.25
2022-10-19T23:11:31.083Z,101191.47
2022-10-19T23:13:57.795Z,101192.22
2022-10-19T23:16:24.399Z,101197.97
2022-10-19T23:18:50.975Z,101207.50
2022-10-19T23:21:17.707Z,101212.28
2022-10-19T23:23:44.486Z,101217.75
2022-10-19T23:26:10.972Z,101218.59
2022-10-19T23:28:39.308Z,101224.72
2022-10-19T23:31:17.606Z,101220.50
2022-10-19T23:33:44.696Z,101221.91
2022-10-19T23:36:23.555Z,101225.81
2022-10-19T23:38:51.561Z,101223.41
2022-10-19T23:41:19.057Z,101226.09
2022-10-19T23:43:46.264Z,101232.84
2022-10-19T23:46:13.089Z,101238.75
2022-10-19T23:48:40.514Z,101239.19
2022-10-19T23:51:10.131Z,101232.19
2022-10-19T23:53:40.932Z,101238.22
2022-10-19T23:56:14.151Z,101241.19
2022-10-19T23:58:40.967Z,101241.34
